Time;durP1;ratioP1;P1;durP2;ratioP2;P2;SDS_P1;SDS_P2;PMS_P1;PMS_P2;Temp;Humidity;BMP_temperature;BMP_pressure;BME280_temperature;BME280_humidity;BME280_pressure;Samples;Min_cycle;Max_cycle;Signal;HPM_P1;HPM_P2
2023/08/05 00:02:14;;;;;;;0.30;0.30;;;;;;;21.70;76.23;98929.09;4386779;32;32573;-88
2023/08/05 00:04:41;;;;;;;0.55;0.37;;;;;;;21.74;76.18;98951.09;4368696;32;32931;-89
2023/08/05 00:07:09;;;;;;;0.00;0.00;;;;;;;21.50;78.01;98972.41;4381331;32;33920;-87
2023/08/05 00:09:37;;;;;;;0.68;0.28;;;;;;;21.14;80.67;98993.94;4377521;32;32747;-87
2023/08/05 00:12:05;;;;;;;0.15;0.15;;;;;;;21.04;80.83;98977.06;4383430;32;34520;-87
2023/08/05 00:14:36;;;;;;;0.03;0.03;;;;;;;21.42;79.48;98954.41;4363810;32;32727;-86
2023/08/05 00:17:04;;;;;;;0.55;0.45;;;;;;;21.48;79.39;98921.56;4355001;32;33899;-86
2023/08/05 00:19:32;;;;;;;0.25;0.25;;;;;;;21.49;78.44;98904.44;4389540;32;33412;-87
2023/08/05 00:22:00;;;;;;;0.80;0.55;;;;;;;21.41;78.70;98890.94;4369452;32;33051;-86
2023/08/05 00:24:27;;;;;;;0.40;0.40;;;;;;;21.80;76.53;98893.19;4370602;32;32674;-86
2023/08/05 00:26:55;;;;;;;6.00;0.47;;;;;;;21.37;78.69;98921.81;4368617;32;34356;-87
2023/08/05 00:29:23;;;;;;;0.62;0.40;;;;;;;21.23;79.00;98929.41;4370844;32;33923;-86
2023/08/05 00:31:50;;;;;;;0.05;0.05;;;;;;;21.59;77.16;98923.12;4374735;32;33330;-86
2023/08/05 00:34:18;;;;;;;0.00;0.00;;;;;;;21.47;77.37;98914.50;4367226;32;33797;-86
2023/08/05 00:36:46;;;;;;;0.00;0.00;;;;;;;21.67;76.35;98910.59;4383258;32;32669;-87
2023/08/05 00:39:14;;;;;;;0.65;0.37;;;;;;;21.44;78.01;98898.69;4375050;32;34996;-86
2023/08/05 00:41:42;;;;;;;0.10;0.10;;;;;;;21.95;75.45;98859.34;4380484;32;33381;-86
2023/08/05 00:44:09;;;;;;;0.00;0.00;;;;;;;21.52;77.84;98853.09;4377420;32;33816;-86
2023/08/05 00:46:37;;;;;;;0.05;0.05;;;;;;;21.98;75.10;98883.19;4380859;32;33559;-87
2023/08/05 00:49:05;;;;;;;0.15;0.13;;;;;;;21.73;76.21;98891.13;4374574;32;32436;-86
2023/08/05 00:51:33;;;;;;;0.20;0.20;;;;;;;21.86;75.89;98796.66;4367299;32;31944;-86
2023/08/05 00:54:02;;;;;;;0.10;0.10;;;;;;;21.62;77.31;98722.19;4382977;32;34286;-86
2023/08/05 00:56:30;;;;;;;0.03;0.03;;;;;;;21.99;75.55;98691.34;4380564;32;33616;-86
2023/08/05 00:58:58;;;;;;;0.30;0.30;;;;;;;21.91;75.50;98669.84;4380775;32;32863;-86
2023/08/05 01:01:25;;;;;;;0.10;0.10;;;;;;;22.26;74.39;98709.03;4394021;32;34695;-86
2023/08/05 01:03:53;;;;;;;0.15;0.15;;;;;;;22.45;73.03;98780.47;4391265;32;33929;-86
2023/08/05 01:06:21;;;;;;;0.75;0.43;;;;;;;22.39;74.11;98810.72;4379546;32;34056;-86
2023/08/05 01:08:49;;;;;;;0.17;0.17;;;;;;;22.31;74.17;98810.72;4380855;32;33890;-85
2023/08/05 01:11:17;;;;;;;1.45;1.12;;;;;;;22.24;74.76;98789.87;4369633;32;34103;-85
2023/08/05 01:13:45;;;;;;;0.20;0.17;;;;;;;22.51;73.66;98769.06;4367511;32;33872;-86
2023/08/05 01:16:12;;;;;;;0.03;0.03;;;;;;;22.72;72.48;98745.16;4383466;32;34376;-85
2023/08/05 01:18:41;;;;;;;0.13;0.13;;;;;;;22.75;72.90;98750.19;4370201;32;33694;-85
2023/08/05 01:21:19;;;;;;;0.52;0.52;;;;;;;22.72;73.39;98761.28;4370088;32;31934;-86
2023/08/05 01:23:50;;;;;;;0.10;0.10;;;;;;;22.63;74.10;98756.94;4395011;32;32446;-86
2023/08/05 01:26:17;;;;;;;1.10;0.57;;;;;;;22.86;73.33;98757.06;4380102;32;33519;-86
2023/08/05 01:28:45;;;;;;;0.45;0.45;;;;;;;22.56;74.05;98747.03;4380781;32;32478;-86
2023/08/05 01:31:15;;;;;;;0.10;0.10;;;;;;;22.79;73.43;98749.84;4378765;32;35014;-86
2023/08/05 01:33:43;;;;;;;0.30;0.30;;;;;;;22.90;73.11;98789.91;4368024;32;33809;-86
2023/08/05 01:36:20;;;;;;;0.22;0.22;;;;;;;22.64;74.62;98871.59;4388430;32;32605;-87
2023/08/05 01:38:49;;;;;;;2.90;0.60;;;;;;;23.23;71.98;98821.16;4374911;32;32288;-87
2023/08/05 01:41:16;;;;;;;0.30;0.30;;;;;;;23.25;71.30;98757.19;4375413;32;33487;-88
2023/08/05 01:43:44;;;;;;;0.40;0.40;;;;;;;22.85;72.56;98781.47;4375367;32;33775;-88
2023/08/05 01:46:12;;;;;;;1.23;0.55;;;;;;;22.79;73.36;98804.53;4387684;32;32976;-88
2023/08/05 01:48:40;;;;;;;0.30;0.30;;;;;;;23.11;71.48;98787.50;4375312;32;33576;-87
2023/08/05 01:51:07;;;;;;;0.70;0.68;;;;;;;22.32;75.02;98759.47;4375408;32;32587;-87
2023/08/05 01:53:35;;;;;;;1.25;1.17;;;;;;;22.32;76.36;98747.88;4350553;32;33325;-87
2023/08/05 01:56:03;;;;;;;0.30;0.25;;;;;;;22.81;73.84;98713.69;4375056;32;33832;-87
2023/08/05 01:58:30;;;;;;;0.47;0.47;;;;;;;23.09;72.55;98710.63;4375462;32;32353;-87
2023/08/05 02:00:58;;;;;;;1.00;0.95;;;;;;;22.87;73.72;98704.09;4387390;32;32245;-87
2023/08/05 02:03:26;;;;;;;0.05;0.05;;;;;;;22.73;74.46;98692.16;4361064;32;33782;-87
2023/08/05 02:06:19;;;;;;;2.70;0.50;;;;;;;22.76;74.47;98713.37;4372525;32;34416;-87
2023/08/05 02:08:47;;;;;;;0.30;0.30;;;;;;;22.75;75.10;98707.16;4362179;32;32408;-87
2023/08/05 02:11:14;;;;;;;7.22;0.47;;;;;;;22.79;74.21;98694.19;4378890;32;32130;-85
2023/08/05 02:13:42;;;;;;;0.40;0.35;;;;;;;23.15;72.84;98658.75;4379051;32;32722;-85
2023/08/05 02:16:10;;;;;;;0.10;0.10;;;;;;;23.20;72.51;98641.06;4371673;32;33988;-85
2023/08/05 02:18:52;;;;;;;1.45;0.62;;;;;;;22.99;73.40;98659.69;4382929;32;32261;-85
2023/08/05 02:21:21;;;;;;;1.23;1.00;;;;;;;23.02;73.28;98659.31;4379976;32;31564;-85
2023/08/05 02:23:49;;;;;;;0.37;0.37;;;;;;;22.90;74.18;98655.34;4379992;32;33505;-85
2023/08/05 02:26:16;;;;;;;0.52;0.52;;;;;;;23.05;73.56;98641.97;4370784;32;33932;-85
2023/08/05 02:28:45;;;;;;;2.17;1.10;;;;;;;23.04;73.07;98651.91;4381538;32;33134;-84
2023/08/05 02:31:13;;;;;;;1.30;1.00;;;;;;;23.07;72.74;98646.16;4377649;32;31914;-84
2023/08/05 02:33:41;;;;;;;0.85;0.30;;;;;;;23.13;73.12;98660.81;4378182;32;32769;-85
2023/08/05 02:36:11;;;;;;;0.45;0.32;;;;;;;23.08;73.15;98649.72;4379529;32;33019;-85
2023/08/05 02:38:38;;;;;;;1.05;0.88;;;;;;;23.15;73.29;98639.91;4370208;32;34095;-85
2023/08/05 02:41:07;;;;;;;0.60;0.50;;;;;;;23.04;73.98;98632.22;4378802;32;32564;-85
2023/08/05 02:43:35;;;;;;;0.73;0.62;;;;;;;23.56;71.17;98656.69;4377438;32;33780;-85
2023/08/05 02:46:02;;;;;;;0.08;0.08;;;;;;;23.34;71.89;98677.19;4380648;32;32535;-85
2023/08/05 02:48:30;;;;;;;0.15;0.15;;;;;;;23.20;72.99;98676.06;4368202;32;34645;-86
2023/08/05 02:50:58;;;;;;;0.57;0.57;;;;;;;23.54;71.24;98672.19;4376939;32;31895;-86
2023/08/05 02:53:27;;;;;;;0.30;0.30;;;;;;;23.65;70.57;98660.22;4380746;32;32296;-85
2023/08/05 02:55:55;;;;;;;1.35;1.25;;;;;;;23.59;71.07;98656.31;4380767;32;34456;-85
2023/08/05 02:58:23;;;;;;;2.15;1.10;;;;;;;23.14;73.15;98701.00;4365132;32;33980;-86
2023/08/05 03:00:51;;;;;;;0.65;0.60;;;;;;;22.71;76.01;98738.09;4386756;32;32342;-86
2023/08/05 03:03:18;;;;;;;0.40;0.40;;;;;;;22.83;75.33;98783.47;4362455;32;32875;-87
2023/08/05 03:05:46;;;;;;;0.30;0.30;;;;;;;22.39;77.92;98818.78;4370180;32;34403;-86
2023/08/05 03:08:14;;;;;;;2.50;0.77;;;;;;;22.31;77.23;98813.41;4369988;32;34529;-88
2023/08/05 03:10:42;;;;;;;0.30;0.30;;;;;;;22.92;73.42;98769.88;4376813;32;33773;-87
2023/08/05 03:13:10;;;;;;;0.60;0.60;;;;;;;23.29;71.59;98751.44;4367805;32;32968;-86
2023/08/05 03:15:37;;;;;;;1.00;0.90;;;;;;;22.79;73.08;98723.81;4364331;32;33059;-86
2023/08/05 03:18:06;;;;;;;5.75;0.93;;;;;;;22.72;73.27;98734.38;4382596;32;33819;-87
2023/08/05 03:20:34;;;;;;;2.08;1.55;;;;;;;22.96;72.93;98751.53;4381701;32;34028;-87
2023/08/05 03:23:02;;;;;;;0.68;0.40;;;;;;;23.08;71.94;98727.81;4367595;32;33238;-87
2023/08/05 03:25:32;;;;;;;0.47;0.47;;;;;;;22.72;74.12;98766.69;4367697;32;33724;-87
2023/08/05 03:28:01;;;;;;;0.77;0.75;;;;;;;22.67;73.98;98832.78;4390778;32;33807;-87
2023/08/05 03:30:29;;;;;;;4.47;0.85;;;;;;;22.81;73.81;98847.41;4366020;32;32274;-87
2023/08/05 03:32:56;;;;;;;0.75;0.73;;;;;;;23.09;72.37;98858.72;4379434;32;33106;-87
2023/08/05 03:35:25;;;;;;;0.85;0.57;;;;;;;23.09;72.42;98854.16;4379516;32;31695;-87
2023/08/05 03:37:54;;;;;;;0.57;0.57;;;;;;;23.22;71.78;98800.62;4371176;32;33344;-87
2023/08/05 03:40:21;;;;;;;0.50;0.35;;;;;;;23.34;71.13;98747.22;4367315;32;32097;-87
2023/08/05 03:42:49;;;;;;;1.12;1.05;;;;;;;23.17;71.53;98724.91;4369641;32;33133;-87
2023/08/05 03:45:17;;;;;;;0.20;0.20;;;;;;;22.88;72.01;98716.53;4372379;32;33865;-87
2023/08/05 03:47:49;;;;;;;0.45;0.28;;;;;;;22.34;74.97;98730.53;4365156;32;33377;-87
2023/08/05 03:50:18;;;;;;;0.10;0.10;;;;;;;22.73;73.54;98728.00;4388905;32;32816;-87
2023/08/05 03:52:45;;;;;;;0.43;0.43;;;;;;;22.67;73.71;98742.13;4385101;32;33813;-87
2023/08/05 03:55:13;;;;;;;0.17;0.17;;;;;;;22.51;74.83;98744.84;4369251;32;32642;-87
2023/08/05 03:57:41;;;;;;;0.60;0.57;;;;;;;22.78;73.99;98742.78;4377364;32;33153;-87
2023/08/05 04:00:10;;;;;;;0.95;0.88;;;;;;;22.99;72.34;98740.44;4376834;32;128825;-86
2023/08/05 04:02:38;;;;;;;0.32;0.10;;;;;;;23.09;72.55;98735.69;4376441;32;33904;-86
2023/08/05 04:05:07;;;;;;;0.98;0.40;;;;;;;23.29;71.16;98719.13;4393913;32;33586;-86
2023/08/05 04:07:34;;;;;;;0.43;0.30;;;;;;;23.34;71.24;98709.50;4376345;32;33066;-87
2023/08/05 04:10:03;;;;;;;1.00;0.90;;;;;;;23.05;72.54;98715.50;4380571;32;32368;-87
2023/08/05 04:12:33;;;;;;;0.98;0.80;;;;;;;23.22;72.15;98719.84;4385607;32;32730;-86
2023/08/05 04:15:02;;;;;;;0.45;0.45;;;;;;;23.09;73.07;98724.94;4377059;32;34786;-86
2023/08/05 04:17:30;;;;;;;0.22;0.20;;;;;;;23.14;72.85;98727.94;4377142;32;34036;-86
2023/08/05 04:20:00;;;;;;;0.45;0.40;;;;;;;23.20;73.13;98738.00;4376639;32;33369;-86
2023/08/05 04:22:27;;;;;;;0.65;0.65;;;;;;;23.12;73.63;98746.13;4385792;32;33007;-86
2023/08/05 04:24:57;;;;;;;0.20;0.20;;;;;;;23.30;72.88;98750.44;4388807;32;34173;-86
2023/08/05 04:27:25;;;;;;;1.02;0.55;;;;;;;23.47;72.42;98754.75;4379374;32;34489;-86
2023/08/05 04:29:52;;;;;;;0.40;0.40;;;;;;;23.67;70.80;98758.72;4405735;32;33538;-85
2023/08/05 04:32:20;;;;;;;0.40;0.40;;;;;;;23.34;71.88;98765.25;4402078;32;33788;-86
2023/08/05 04:34:48;;;;;;;1.85;0.88;;;;;;;23.35;71.35;98756.97;4404629;32;32740;-86
2023/08/05 04:37:16;;;;;;;1.12;1.02;;;;;;;23.44;71.25;98761.31;4378193;32;32575;-86
2023/08/05 04:39:44;;;;;;;0.43;0.43;;;;;;;23.51;70.95;98761.47;4385919;32;31901;-86
2023/08/05 04:42:13;;;;;;;0.25;0.25;;;;;;;23.44;71.44;98771.25;4385210;32;34567;-86
2023/08/05 04:44:41;;;;;;;0.52;0.52;;;;;;;23.76;70.04;98760.38;4377754;32;32643;-86
2023/08/05 04:47:09;;;;;;;0.25;0.20;;;;;;;23.60;70.60;98748.81;4378009;32;33299;-86
2023/08/05 04:49:40;;;;;;;0.20;0.10;;;;;;;23.63;70.45;98741.19;4389783;32;33500;-86
2023/08/05 04:52:08;;;;;;;0.15;0.15;;;;;;;23.86;69.13;98733.19;4391905;32;34049;-87
2023/08/05 04:54:38;;;;;;;0.32;0.32;;;;;;;23.74;69.17;98719.28;4405497;32;33903;-88
2023/08/05 04:57:06;;;;;;;0.73;0.25;;;;;;;23.71;69.37;98714.25;4400472;32;32776;-88
2023/08/05 04:59:34;;;;;;;0.55;0.40;;;;;;;23.71;69.44;98702.63;4384017;32;32235;-87
2023/08/05 05:02:02;;;;;;;0.30;0.30;;;;;;;23.37;70.72;98700.25;4375720;32;34109;-87
2023/08/05 05:04:30;;;;;;;0.28;0.28;;;;;;;23.17;72.09;98702.53;4374620;32;32985;-86
2023/08/05 05:06:58;;;;;;;1.02;0.60;;;;;;;23.25;72.13;98707.84;4377769;32;32914;-86
2023/08/05 05:09:26;;;;;;;0.17;0.17;;;;;;;23.18;72.51;98713.13;4391055;32;32794;-87
2023/08/05 05:11:55;;;;;;;0.73;0.73;;;;;;;23.31;72.59;98709.00;4372795;32;32807;-86
2023/08/05 05:14:22;;;;;;;2.42;1.08;;;;;;;23.39;72.45;98708.97;4388206;32;33892;-87
2023/08/05 05:16:50;;;;;;;0.40;0.13;;;;;;;23.54;72.21;98707.22;4394690;32;33913;-86
2023/08/05 05:19:18;;;;;;;0.10;0.10;;;;;;;23.63;72.48;98705.31;4386200;32;33425;-85
2023/08/05 05:21:46;;;;;;;0.05;0.05;;;;;;;23.87;72.06;98696.28;4374822;32;33934;-85
2023/08/05 05:24:13;;;;;;;0.62;0.62;;;;;;;23.83;73.03;98689.56;4373918;32;31958;-85
2023/08/05 05:26:41;;;;;;;0.65;0.65;;;;;;;24.05;72.46;98693.28;4385174;32;34459;-84
2023/08/05 05:29:09;;;;;;;0.57;0.32;;;;;;;24.30;71.71;98694.78;4380682;32;32947;-84
2023/08/05 05:31:36;;;;;;;0.30;0.30;;;;;;;24.23;72.49;98686.56;4375229;32;33886;-85
2023/08/05 05:34:04;;;;;;;0.37;0.37;;;;;;;24.31;72.66;98691.06;4395424;32;32439;-85
2023/08/05 05:36:32;;;;;;;0.10;0.10;;;;;;;24.53;71.99;98682.09;4367297;32;32487;-85
2023/08/05 05:38:59;;;;;;;0.50;0.37;;;;;;;24.51;72.23;98684.16;4395414;32;31975;-85
2023/08/05 05:41:27;;;;;;;0.40;0.40;;;;;;;24.48;72.21;98686.38;4376713;32;30331;-85
2023/08/05 05:43:56;;;;;;;9.60;0.85;;;;;;;24.67;71.81;98680.47;4399218;32;34114;-85
2023/08/05 05:46:24;;;;;;;1.08;0.68;;;;;;;24.88;71.47;98679.75;4364171;32;32824;-85
2023/08/05 05:48:52;;;;;;;0.55;0.55;;;;;;;25.24;70.04;98668.19;4372554;32;33434;-85
2023/08/05 05:51:19;;;;;;;1.15;0.47;;;;;;;25.44;69.27;98676.53;4397403;32;32566;-85
2023/08/05 05:53:47;;;;;;;1.12;0.90;;;;;;;25.40;69.32;98689.63;4372988;32;32693;-85
2023/08/05 05:56:15;;;;;;;0.40;0.40;;;;;;;25.51;69.06;98688.28;4385339;32;33449;-86
2023/08/05 05:58:43;;;;;;;0.50;0.50;;;;;;;25.20;69.40;98683.94;4372231;32;33110;-85
2023/08/05 06:01:10;;;;;;;0.60;0.60;;;;;;;25.13;69.36;98685.72;4374246;32;32386;-85
2023/08/05 06:03:38;;;;;;;0.40;0.40;;;;;;;25.74;67.12;98686.28;4384062;32;32888;-85
2023/08/05 06:06:06;;;;;;;1.00;0.77;;;;;;;25.90;66.29;98681.69;4385337;32;33114;-85
2023/08/05 06:08:34;;;;;;;0.55;0.52;;;;;;;25.78;67.82;98686.78;4385292;32;33654;-85
2023/08/05 06:11:07;;;;;;;0.57;0.57;;;;;;;25.90;68.30;98679.81;4380445;32;33360;-85
2023/08/05 06:13:34;;;;;;;0.55;0.55;;;;;;;25.81;66.83;98685.53;4373207;32;34661;-86
2023/08/05 06:16:03;;;;;;;0.20;0.20;;;;;;;25.91;67.46;98692.28;4380031;32;32775;-87
2023/08/05 06:18:31;;;;;;;0.20;0.20;;;;;;;25.77;67.83;98691.31;4375576;32;31945;-87
2023/08/05 06:21:01;;;;;;;0.62;0.62;;;;;;;25.47;67.59;98687.81;4391367;32;32971;-87
2023/08/05 06:23:31;;;;;;;1.30;0.85;;;;;;;25.96;66.19;98692.56;4388974;32;33258;-87
2023/08/05 06:25:59;;;;;;;0.88;0.88;;;;;;;25.77;67.96;98696.72;4384029;32;33109;-87
2023/08/05 06:28:26;;;;;;;1.00;0.85;;;;;;;25.86;67.81;98693.91;4387740;32;32989;-87
2023/08/05 06:30:55;;;;;;;1.00;0.50;;;;;;;26.24;66.18;98698.03;4377309;32;31647;-87
2023/08/05 06:33:23;;;;;;;1.37;1.25;;;;;;;26.51;62.86;98692.88;4385918;32;32657;-90
2023/08/05 06:35:50;;;;;;;1.62;0.90;;;;;;;26.34;65.40;98686.03;4383880;32;32455;-89
2023/08/05 06:38:18;;;;;;;0.98;0.47;;;;;;;26.45;63.71;98689.09;4351423;32;32299;-87
2023/08/05 06:40:46;;;;;;;2.35;0.57;;;;;;;26.00;64.35;98693.00;4383236;32;33012;-88
2023/08/05 06:43:13;;;;;;;20.55;1.25;;;;;;;26.03;64.62;98684.53;4372260;32;32758;-86
2023/08/05 06:45:41;;;;;;;1.85;1.65;;;;;;;25.63;65.84;98688.63;4364190;32;34187;-86
2023/08/05 06:48:11;;;;;;;1.33;0.52;;;;;;;25.84;66.14;98686.00;4385836;32;33189;-86
2023/08/05 06:50:39;;;;;;;0.20;0.20;;;;;;;26.25;64.72;98697.03;4372158;32;33509;-86
2023/08/05 06:53:07;;;;;;;0.90;0.45;;;;;;;26.26;64.74;98698.69;4384813;32;33589;-86
2023/08/05 06:55:34;;;;;;;0.60;0.60;;;;;;;26.56;63.76;98701.25;4388622;32;32497;-86
2023/08/05 06:58:02;;;;;;;0.60;0.60;;;;;;;26.18;63.47;98695.28;4389244;32;31539;-86
2023/08/05 07:00:30;;;;;;;0.73;0.73;;;;;;;26.16;64.22;98702.72;4384866;32;34113;-86
2023/08/05 07:02:58;;;;;;;0.43;0.37;;;;;;;26.20;65.46;98707.56;4371347;32;33661;-86
2023/08/05 07:05:26;;;;;;;0.30;0.30;;;;;;;26.38;64.75;98708.97;4374483;32;31517;-86
2023/08/05 07:07:54;;;;;;;0.20;0.20;;;;;;;26.39;64.01;98710.66;4387332;32;33236;-86
2023/08/05 07:10:23;;;;;;;1.62;0.75;;;;;;;26.42;63.69;98711.09;4385238;32;32980;-86
2023/08/05 07:12:51;;;;;;;0.20;0.20;;;;;;;26.50;64.00;98712.87;4384585;32;33612;-86
2023/08/05 07:15:19;;;;;;;0.90;0.68;;;;;;;26.62;65.47;98714.00;4362370;32;33494;-86
2023/08/05 07:17:46;;;;;;;0.80;0.80;;;;;;;26.68;63.60;98725.91;4359327;32;32461;-86
2023/08/05 07:20:14;;;;;;;0.30;0.30;;;;;;;26.90;63.00;98724.00;4369140;32;33856;-85
2023/08/05 07:22:42;;;;;;;0.30;0.30;;;;;;;26.71;62.20;98725.53;4383075;32;33192;-85
2023/08/05 07:25:10;;;;;;;0.50;0.50;;;;;;;26.80;63.64;98727.06;4370592;32;33593;-86
2023/08/05 07:27:38;;;;;;;1.15;0.90;;;;;;;26.64;63.16;98714.66;4383829;32;32271;-86
2023/08/05 07:30:13;;;;;;;1.85;0.62;;;;;;;26.75;62.92;98707.84;4355550;32;34333;-87
2023/08/05 07:32:47;;;;;;;0.55;0.55;;;;;;;26.78;64.34;98697.47;4369789;32;35040;-86
2023/08/05 07:35:53;;;;;;;2.58;1.75;;;;;;;26.97;63.02;98703.22;4380087;32;33876;-86
2023/08/05 07:39:07;;;;;;;0.35;0.35;;;;;;;27.13;62.13;98702.91;4383544;32;36467;-86
2023/08/05 07:42:32;;;;;;;;;;;;;;;;;;;;;
2023/08/05 07:48:52;;;;;;;;;;;;;;;;;;;;;
2023/08/05 07:51:50;;;;;;;0.50;0.50;;;;;;;27.42;61.90;98687.41;4358879;32;33129;-87
2023/08/05 07:54:23;;;;;;;1.12;0.68;;;;;;;27.45;61.71;98678.91;4383018;32;32509;-86
2023/08/05 07:56:52;;;;;;;0.77;0.77;;;;;;;27.39;62.10;98701.38;4371765;32;33520;-87
2023/08/05 07:59:20;;;;;;;0.82;0.82;;;;;;;27.60;61.56;98697.72;4384097;32;33025;-87
2023/08/05 08:01:48;;;;;;;1.77;1.33;;;;;;;28.02;59.74;98693.91;4368319;32;32285;-87
2023/08/05 08:04:17;;;;;;;1.52;1.00;;;;;;;28.07;58.23;98692.25;4345750;32;33772;-87
2023/08/05 08:06:48;;;;;;;0.75;0.68;;;;;;;27.95;59.38;98693.03;4361698;32;33184;-86
2023/08/05 08:09:20;;;;;;;0.90;0.88;;;;;;;27.84;59.79;98699.06;4383922;32;34646;-87
2023/08/05 08:11:48;;;;;;;0.55;0.55;;;;;;;27.62;59.58;98699.16;4373139;32;34184;-87
2023/08/05 08:14:17;;;;;;;1.65;0.95;;;;;;;27.31;60.60;98705.94;4362753;32;33915;-87
2023/08/05 08:17:01;;;;;;;2.10;1.05;;;;;;;27.65;61.37;98704.19;4367244;32;33681;-87
2023/08/05 08:19:36;;;;;;;1.27;1.20;;;;;;;28.04;59.64;98700.78;4387332;32;33446;-87
2023/08/05 08:22:04;;;;;;;1.25;0.60;;;;;;;27.63;60.07;98709.00;4378251;32;32770;-87
2023/08/05 08:24:32;;;;;;;0.80;0.80;;;;;;;27.05;62.79;98716.59;4383898;32;34183;-86
2023/08/05 08:27:00;;;;;;;1.27;1.17;;;;;;;27.38;61.52;98715.97;4370915;32;32837;-87
2023/08/05 08:29:27;;;;;;;0.80;0.80;;;;;;;28.00;59.82;98714.97;4370710;32;34734;-87
2023/08/05 08:31:55;;;;;;;0.70;0.70;;;;;;;27.99;59.15;98722.28;4384618;32;32901;-87
2023/08/05 08:34:23;;;;;;;0.57;0.57;;;;;;;28.03;59.79;98720.00;4390822;32;33481;-88
2023/08/05 08:36:56;;;;;;;0.93;0.93;;;;;;;27.95;59.27;98742.72;4376835;32;32859;-88
2023/08/05 08:39:30;;;;;;;1.85;1.42;;;;;;;27.58;60.80;98752.13;4370747;32;34328;-87
2023/08/05 08:41:58;;;;;;;0.95;0.95;;;;;;;27.46;61.75;98746.47;4384732;32;32325;-87
2023/08/05 08:44:29;;;;;;;1.42;1.33;;;;;;;27.38;61.06;98753.91;4373439;32;33906;-88
2023/08/05 08:46:58;;;;;;;1.08;0.85;;;;;;;27.56;61.52;98746.09;4393645;32;33896;-87
2023/08/05 08:49:25;;;;;;;0.77;0.50;;;;;;;27.79;60.56;98748.50;4383573;32;33365;-88
2023/08/05 08:51:53;;;;;;;1.25;0.90;;;;;;;27.88;61.25;98755.44;4371600;32;33564;-87
2023/08/05 08:54:21;;;;;;;0.90;0.60;;;;;;;28.03;60.98;98747.97;4370562;32;31832;-87
2023/08/05 08:56:49;;;;;;;1.35;1.25;;;;;;;28.13;60.45;98742.13;4383565;32;33818;-88
2023/08/05 08:59:17;;;;;;;1.85;1.67;;;;;;;28.22;59.32;98740.91;4367554;32;34386;-87
2023/08/05 09:01:45;;;;;;;1.92;0.98;;;;;;;27.78;60.27;98749.56;4383559;32;33424;-88
2023/08/05 09:04:16;;;;;;;1.17;0.68;;;;;;;27.76;60.49;98747.03;4370654;32;33711;-89
2023/08/05 09:06:46;;;;;;;1.67;1.57;;;;;;;27.72;60.72;98748.47;4374009;32;33098;-88
2023/08/05 09:09:14;;;;;;;1.12;1.12;;;;;;;27.57;61.60;98745.03;4371306;32;33314;-88
2023/08/05 09:11:41;;;;;;;1.75;1.65;;;;;;;27.96;60.35;98738.13;4369920;32;33615;-89
2023/08/05 09:14:14;;;;;;;1.17;1.10;;;;;;;27.95;60.57;98750.00;4385003;32;34511;-88
2023/08/05 09:16:56;;;;;;;2.08;1.73;;;;;;;27.53;61.53;98743.75;4385459;32;33906;-88
2023/08/05 09:19:26;;;;;;;1.45;1.35;;;;;;;27.74;61.20;98732.84;4373388;32;32737;-88
2023/08/05 09:21:55;;;;;;;1.23;1.12;;;;;;;27.51;61.84;98727.72;4373110;32;33820;-88
2023/08/05 09:24:23;;;;;;;2.72;2.30;;;;;;;27.65;61.62;98727.78;4373086;32;34167;-88
2023/08/05 09:26:56;;;;;;;0.60;0.60;;;;;;;27.58;62.67;98725.00;4384381;32;33526;-88
2023/08/05 09:29:25;;;;;;;1.98;1.52;;;;;;;27.83;61.35;98729.97;4377287;32;33750;-88
2023/08/05 09:32:00;;;;;;;2.08;1.52;;;;;;;28.10;60.65;98728.97;4371060;32;32151;-88
2023/08/05 09:34:41;;;;;;;1.58;1.48;;;;;;;27.78;61.27;98728.69;4370426;32;33735;-88
2023/08/05 09:37:10;;;;;;;2.55;2.35;;;;;;;28.10;60.95;98726.25;4383418;32;34209;-90
2023/08/05 09:39:46;;;;;;;3.08;2.42;;;;;;;27.53;62.08;98732.91;4383849;32;33480;-88
2023/08/05 09:42:24;;;;;;;2.87;2.65;;;;;;;27.84;61.53;98737.06;4373373;32;32059;-89
2023/08/05 09:44:54;;;;;;;2.17;1.98;;;;;;;27.67;61.76;98737.34;4372501;32;33515;-88
2023/08/05 09:47:27;;;;;;;2.03;1.90;;;;;;;27.76;61.50;98724.50;4384845;32;33262;-87
2023/08/05 09:49:56;;;;;;;1.80;1.42;;;;;;;27.91;61.65;98718.91;4365890;32;33217;-88
2023/08/05 09:52:25;;;;;;;3.25;2.15;;;;;;;27.65;62.60;98717.75;4386342;32;32842;-88
2023/08/05 09:54:59;;;;;;;2.65;2.45;;;;;;;28.33;59.91;98712.28;4372908;32;34593;-88
2023/08/05 09:57:27;;;;;;;2.17;2.08;;;;;;;28.35;60.17;98717.56;4352107;32;32605;-89
2023/08/05 09:59:59;;;;;;;2.87;2.00;;;;;;;27.91;61.11;98721.63;4369172;32;33074;-88
2023/08/05 10:02:34;;;;;;;2.87;2.67;;;;;;;27.82;62.34;98720.97;4384095;32;33014;-90
2023/08/05 10:05:03;;;;;;;2.80;1.92;;;;;;;28.30;61.11;98721.72;4388435;32;34046;-91
2023/08/05 10:07:30;;;;;;;1.62;1.52;;;;;;;28.37;60.21;98726.34;4385686;32;34332;-87
2023/08/05 10:10:00;;;;;;;2.33;1.77;;;;;;;28.36;60.20;98730.09;4387969;32;33252;-87
2023/08/05 10:12:36;;;;;;;3.37;2.15;;;;;;;28.51;59.12;98728.00;4386930;32;33212;-88
2023/08/05 10:15:05;;;;;;;2.10;1.40;;;;;;;28.45;59.97;98731.56;4371966;32;33556;-91
2023/08/05 10:17:38;;;;;;;3.67;2.53;;;;;;;28.48;59.87;98734.69;4385949;32;31876;-88
2023/08/05 10:20:07;;;;;;;2.12;1.98;;;;;;;28.37;61.13;98740.75;4375907;32;32445;-89
2023/08/05 10:22:37;;;;;;;2.65;1.92;;;;;;;28.35;60.25;98728.44;4369880;32;31726;-89
2023/08/05 10:25:06;;;;;;;4.47;3.60;;;;;;;28.30;60.38;98729.84;4372039;32;32612;-91
2023/08/05 10:27:44;;;;;;;2.87;2.67;;;;;;;28.44;59.76;98733.44;4384626;32;33791;-90
2023/08/05 10:30:13;;;;;;;4.37;2.55;;;;;;;28.67;59.23;98715.88;4359971;32;32270;-88
2023/08/05 10:32:52;;;;;;;3.17;2.85;;;;;;;28.79;58.94;98717.75;4373847;32;33882;-87
2023/08/05 10:35:24;;;;;;;3.33;3.03;;;;;;;29.03;57.80;98720.91;4370196;32;33946;-88
2023/08/05 10:38:09;;;;;;;2.42;2.17;;;;;;;29.13;58.31;98725.91;4370879;32;34217;-88
2023/08/05 10:41:12;;;;;;;18.15;1.75;;;;;;;29.12;58.38;98730.50;4380482;32;33877;-88
2023/08/05 10:43:41;;;;;;;;;;;;;;;28.86;59.07;98733.22;4386304;32;33132;-88
2023/08/05 10:46:12;;;;;;;2.30;2.20;;;;;;;29.34;57.21;98717.47;4367005;32;33701;-88
2023/08/05 10:48:42;;;;;;;3.17;1.90;;;;;;;29.68;56.49;98715.50;4384375;32;31582;-88
2023/08/05 10:51:20;;;;;;;2.90;2.62;;;;;;;29.84;56.93;98713.09;4362095;32;34011;-87
2023/08/05 10:53:51;;;;;;;3.28;2.60;;;;;;;29.63;56.89;98721.59;4372867;32;33299;-88
2023/08/05 10:56:29;;;;;;;2.95;2.75;;;;;;;29.28;57.36;98721.88;4375563;32;33292;-88
2023/08/05 10:58:59;;;;;;;3.30;2.15;;;;;;;29.55;56.79;98719.09;4384475;32;33712;-85
2023/08/05 11:01:56;;;;;;;4.25;3.33;;;;;;;29.53;56.71;98715.72;4367133;32;32925;-85
2023/08/05 11:04:30;;;;;;;4.62;4.15;;;;;;;29.20;57.51;98727.56;4363129;32;31621;-85
2023/08/05 11:07:00;;;;;;;3.40;3.15;;;;;;;29.29;56.85;98723.56;4372033;32;32503;-84
2023/08/05 11:09:33;;;;;;;13.27;4.75;;;;;;;29.55;56.59;98719.09;4373225;32;33681;-84
2023/08/05 11:12:01;;;;;;;3.70;3.40;;;;;;;29.77;56.38;98715.03;4372528;32;33811;-84
2023/08/05 11:14:29;;;;;;;2.87;2.65;;;;;;;29.56;56.25;98715.31;4384387;32;32874;-84
2023/08/05 11:17:07;;;;;;;3.95;3.53;;;;;;;29.51;55.75;98717.81;4376450;32;33497;-84
2023/08/05 11:19:56;;;;;;;2.12;2.00;;;;;;;29.34;57.23;98706.59;4361426;32;34653;-84
2023/08/05 11:22:33;;;;;;;2.80;2.33;;;;;;;29.64;56.28;98725.12;4383286;32;32365;-84
2023/08/05 11:25:05;;;;;;;2.55;2.35;;;;;;;29.58;57.01;98724.12;4363559;32;33075;-84
2023/08/05 11:27:39;;;;;;;4.07;2.65;;;;;;;29.55;57.12;98728.09;4383793;32;33240;-84
2023/08/05 11:30:14;;;;;;;3.33;2.05;;;;;;;29.40;57.98;98732.09;4372389;32;35072;-84
2023/08/05 11:33:03;;;;;;;4.00;3.45;;;;;;;29.37;58.81;98721.66;4373596;32;34024;-85
2023/08/05 11:35:31;;;;;;;1.87;1.75;;;;;;;29.53;57.94;98729.31;4357172;32;33436;-84
2023/08/05 11:37:59;;;;;;;1.75;1.60;;;;;;;29.52;58.54;98735.81;4384062;32;34426;-84
2023/08/05 11:40:27;;;;;;;2.00;1.90;;;;;;;29.52;57.85;98730.38;4365219;32;33929;-84
2023/08/05 11:42:55;;;;;;;6.05;2.75;;;;;;;29.61;57.04;98731.84;4373194;32;33460;-84
2023/08/05 11:45:24;;;;;;;1.77;1.67;;;;;;;29.57;57.82;98736.84;4371516;32;32220;-84
2023/08/05 11:47:51;;;;;;;2.42;1.65;;;;;;;29.40;58.05;98740.25;4383630;32;33559;-84
2023/08/05 11:50:19;;;;;;;1.92;1.75;;;;;;;29.29;58.14;98741.72;4372688;32;32172;-83
2023/08/05 11:53:05;;;;;;;3.35;1.73;;;;;;;29.24;57.68;98739.66;4382329;32;33746;-84
2023/08/05 11:55:36;;;;;;;6.05;2.28;;;;;;;29.42;57.29;98738.16;4383927;32;32374;-84